1967 JACKIE (1967097S11089)


IBTrACS version v04r00. Visit IBTrACS website for data access.
Please direct all questions to the IBTrACS Q and A forum

Storm track - Intensity - Wind Radii - Intensity Data - Source Data - All data

Summary Information

Storm ID 1967097S11089
Start Apr 7 06Z
End Apr 12 06Z
ATCF IDs
Track status Best track data.
Spur track This storm is a spur track associated with the main storm: 1967096S10096

Storm track plot

Map of storm track

Intensity plots

No Intensity information for this storm


Radial wind information

No radial wind information for this storm


Position and Intensity Table

BASIN ISO_TIME_________ NATURE LAT LON
degrees north degrees east
SI 1967-04-07 06:00:00 NR -11.10 89.00
SI 07:00:00 NR -11.16 88.86
SI 09:00:00 NR -11.28 88.59
SI 10:00:00 NR -11.35 88.46
SI 12:00:00 NR -11.50 88.20
SI 15:00:00 NR -11.76 87.84
SI 16:00:00 NR -11.85 87.73
SI 18:00:00 NR -12.00 87.50
SI 21:00:00 NR -12.09 87.16
SI 22:00:00 NR -12.12 87.04
SI 1967-04-08 00:00:00 NR -12.20 86.80
SI 01:00:00 NR -12.29 86.67
SI 03:00:00 NR -12.50 86.39
SI 04:00:00 NR -12.61 86.26
SI 06:00:00 NR -12.80 86.00
SI 07:00:00 NR -12.86 85.88
SI 09:00:00 NR -12.93 85.67
SI 10:00:00 NR -12.96 85.57
SI 12:00:00 NR -13.00 85.40
SI 15:00:00 NR -13.08 85.18
SI 16:00:00 NR -13.12 85.12
SI 18:00:00 NR -13.20 85.00
SI 19:00:00 NR -13.26 84.94
SI 21:00:00 NR -13.39 84.81
SI 22:00:00 NR -13.46 84.74
SI 1967-04-09 00:00:00 NR -13.60 84.60
SI 01:00:00 NR -13.64 84.53
SI 03:00:00 NR -13.71 84.39
SI 04:00:00 NR -13.76 84.30
SI 06:00:00 NR -13.90 84.10
SI 07:00:00 NR -14.02 83.97
SI 09:00:00 NR -14.32 83.66
SI 10:00:00 NR -14.48 83.50
SI 12:00:00 NR -14.80 83.20
SI 15:00:00 NR -15.12 82.87
SI 16:00:00 NR -15.23 82.78
SI 18:00:00 NR -15.50 82.60
SI 19:00:00 NR -15.69 82.50
SI 21:00:00 NR -16.12 82.31
SI 22:00:00 NR -16.35 82.23
SI 1967-04-10 00:00:00 NR -16.80 82.10
SI 01:00:00 NR -17.00 82.06
SI 03:00:00 NR -17.37 82.00
SI 04:00:00 NR -17.55 82.00
SI 06:00:00 NR -17.90 82.00
SI 07:00:00 NR -18.07 81.99
SI 09:00:00 NR -18.39 81.98
SI 10:00:00 NR -18.56 82.00
SI 12:00:00 NR -18.90 82.10
SI 15:00:00 NR -19.49 82.45
SI 18:00:00 NR -20.10 82.90
SI 19:00:00 NR -20.30 83.02
SI 21:00:00 NR -20.70 83.27
SI 22:00:00 NR -20.90 83.40
SI 1967-04-11 00:00:00 NR -21.30 83.70
SI 03:00:00 NR -21.95 84.27
SI 04:00:00 NR -22.15 84.48
SI 06:00:00 NR -22.50 84.90
SI 09:00:00 NR -22.84 85.48
SI 10:00:00 NR -22.92 85.68
SI 12:00:00 NR -23.10 86.10
SI 15:00:00 NR -23.46 86.84
SI 16:00:00 NR -23.58 87.10
SI 18:00:00 NR -23.80 87.60
SI 19:00:00 NR -23.89 87.83
SI 21:00:00 NR -24.05 88.28
SI 22:00:00 NR -24.13 88.49
SI 1967-04-12 00:00:00 NR -24.30 88.90
SI 01:00:00 NR -24.40 89.09
SI 03:00:00 NR -24.63 89.46
SI 04:00:00 NR -24.75 89.64
SI 06:00:00 ET -25.00 90.00

Source Information

Agency Information
USA
TOKYO
CMA
HKO
NEWDELHI
REUNION WMO-Best-Tracks.txt:Line=6845:jackie
BOM
NADI
WELLINGTON
DS824
TD9636
TD9635
NEUMANN
MLC

All available IBTrACS Data

SEASON BASIN SUBBASIN ISO_TIME_________ NATURE LAT LON DIST2LAND LANDFALL IFLAG USA SSHS REUNION LAT REUNION LON REUNION TYPE REUNION TNUM STORM SPEED STORM DIR
Year degrees north degrees east km km 1 degrees north degrees east 1 kts degrees
1967 SI MM 1967-04-07 06:00:00 NR -11.10 89.00 1518 1518 _____O________ -1 -11.10 89.00 99 9.90 9 246
1967 SI MM 07:00:00 NR -11.16 88.86 1533 1533 _____P________ -1 -11.16 88.86 99 9 246
1967 SI MM 09:00:00 NR -11.28 88.59 1565 1565 _____P________ -1 -11.28 88.59 99 9 244
1967 SI MM 10:00:00 NR -11.35 88.46 1573 1573 _____P________ -1 -11.35 88.46 99 9 240
1967 SI MM 12:00:00 NR -11.50 88.20 1612 1612 _____O________ -1 -11.50 88.20 99 9.90 9 235
1967 SI MM 15:00:00 NR -11.76 87.84 1667 1667 _____P________ -1 -11.76 87.84 99 9 233
1967 SI MM 16:00:00 NR -11.85 87.73 1683 1683 _____P________ -1 -11.85 87.73 99 8 235
1967 SI MM 18:00:00 NR -12.00 87.50 1707 1707 _____O________ -1 -12.00 87.50 99 9.90 7 247
1967 SI MM 21:00:00 NR -12.09 87.16 1738 1738 _____P________ -1 -12.09 87.16 99 7 255
1967 SI MM 22:00:00 NR -12.12 87.04 1755 1755 _____P________ -1 -12.12 87.04 99 7 253
1967 SI MM 1967-04-08 00:00:00 NR -12.20 86.80 1779 1779 _____O________ -1 -12.20 86.80 99 9.90 8 245
1967 SI MM 01:00:00 NR -12.29 86.67 1794 1794 _____P________ -1 -12.29 86.67 99 10 233
1967 SI MM 03:00:00 NR -12.50 86.39 1834 1834 _____P________ -1 -12.50 86.39 99 10 231
1967 SI MM 04:00:00 NR -12.61 86.26 1849 1849 _____P________ -1 -12.61 86.26 99 10 232
1967 SI MM 06:00:00 NR -12.80 86.00 1888 1888 _____O________ -1 -12.80 86.00 99 9.90 9 236
1967 SI MM 07:00:00 NR -12.86 85.88 1904 1904 _____P________ -1 -12.86 85.88 99 7 248
1967 SI MM 09:00:00 NR -12.93 85.67 1921 1921 _____P________ -1 -12.93 85.67 99 6 252
1967 SI MM 10:00:00 NR -12.96 85.57 1936 1936 _____P________ -1 -12.96 85.57 99 5 255
1967 SI MM 12:00:00 NR -13.00 85.40 1953 1953 _____O________ -1 -13.00 85.40 99 9.90 5 251
1967 SI MM 15:00:00 NR -13.08 85.18 1977 1977 _____P________ -1 -13.08 85.18 99 4 247
1967 SI MM 16:00:00 NR -13.12 85.12 1985 1985 _____P________ -1 -13.12 85.12 99 4 237
1967 SI MM 18:00:00 NR -13.20 85.00 2001 2001 _____O________ -1 -13.20 85.00 99 9.90 5 233
1967 SI MM 19:00:00 NR -13.26 84.94 2016 2016 _____P________ -1 -13.26 84.94 99 5 224
1967 SI MM 21:00:00 NR -13.39 84.81 2031 2031 _____P________ -1 -13.39 84.81 99 6 223
1967 SI MM 22:00:00 NR -13.46 84.74 2047 2047 _____P________ -1 -13.46 84.74 99 6 224
1967 SI MM 1967-04-09 00:00:00 NR -13.60 84.60 2062 2062 _____O________ -1 -13.60 84.60 99 9.90 5 229
1967 SI MM 01:00:00 NR -13.64 84.53 2071 2071 _____P________ -1 -13.64 84.53 99 5 241
1967 SI MM 03:00:00 NR -13.71 84.39 2086 2086 _____P________ -1 -13.71 84.39 99 5 242
1967 SI MM 04:00:00 NR -13.76 84.30 2102 2102 _____P________ -1 -13.76 84.30 99 7 236
1967 SI MM 06:00:00 NR -13.90 84.10 2126 2126 _____O________ -1 -13.90 84.10 99 9.90 8 231
1967 SI MM 07:00:00 NR -14.02 83.97 2141 2141 _____P________ -1 -14.02 83.97 99 12 226
1967 SI MM 09:00:00 NR -14.32 83.66 2187 2187 _____P________ -1 -14.32 83.66 99 13 224
1967 SI MM 10:00:00 NR -14.48 83.50 2218 2218 _____P________ -1 -14.48 83.50 99 13 223
1967 SI MM 12:00:00 NR -14.80 83.20 2264 2264 _____O________ -1 -14.80 83.20 99 9.90 11 224
1967 SI MM 15:00:00 NR -15.12 82.87 2310 2310 _____P________ -1 -15.12 82.87 99 9 224
1967 SI MM 16:00:00 NR -15.23 82.78 2326 2326 _____P________ -1 -15.23 82.78 99 9 214
1967 SI MM 18:00:00 NR -15.50 82.60 2364 2364 _____O________ -1 -15.50 82.60 99 9.90 11 210
1967 SI MM 19:00:00 NR -15.69 82.50 2386 2386 _____P________ -1 -15.69 82.50 99 14 204
1967 SI MM 21:00:00 NR -16.12 82.31 2431 2431 _____P________ -1 -16.12 82.31 99 14 201
1967 SI MM 22:00:00 NR -16.35 82.23 2454 2454 _____P________ -1 -16.35 82.23 99 14 197
1967 SI MM 1967-04-10 00:00:00 NR -16.80 82.10 2498 2498 _____O________ -1 -16.80 82.10 99 9.90 13 195
1967 SI MM 01:00:00 NR -17.00 82.06 2513 2513 _____P________ -1 -17.00 82.06 99 12 188
1967 SI MM 03:00:00 NR -17.37 82.00 2550 2550 _____P________ -1 -17.37 82.00 99 11 186
1967 SI MM 04:00:00 NR -17.55 82.00 2560 2554 _____P________ -1 -17.55 82.00 99 11 182
1967 SI MM 06:00:00 NR -17.90 82.00 2554 2552 _____O________ -1 -17.90 82.00 99 9.90 10 0
1967 SI MM 07:00:00 NR -18.07 81.99 2550 2545 _____P________ -1 -18.07 81.99 99 10 182
1967 SI MM 09:00:00 NR -18.39 81.98 2545 2543 _____P________ -1 -18.39 81.98 99 10 178
1967 SI MM 10:00:00 NR -18.56 82.00 2542 2539 _____P________ -1 -18.56 82.00 99 10 167
1967 SI MM 12:00:00 NR -18.90 82.10 2547 2546 _____O________ -1 -18.90 82.10 99 9.90 12 156
1967 SI MM 15:00:00 NR -19.49 82.45 2571 2571 _____P________ -1 -19.49 82.45 99 14 148
1967 SI MM 18:00:00 NR -20.10 82.90 2616 2615 _____O________ -1 -20.10 82.90 99 9.90 15 146
1967 SI MM 19:00:00 NR -20.30 83.02 2625 2625 _____P________ -1 -20.30 83.02 99 14 150
1967 SI MM 21:00:00 NR -20.70 83.27 2653 2652 _____P________ -1 -20.70 83.27 99 14 149
1967 SI MM 22:00:00 NR -20.90 83.40 2662 2661 _____P________ -1 -20.90 83.40 99 15 146
1967 SI MM 1967-04-11 00:00:00 NR -21.30 83.70 2691 2691 _____O________ -1 -21.30 83.70 99 9.90 16 142
1967 SI MM 03:00:00 NR -21.95 84.27 2750 2750 _____P________ -1 -21.95 84.27 99 17 140
1967 SI MM 04:00:00 NR -22.15 84.48 2764 2764 _____P________ -1 -22.15 84.48 99 16 134
1967 SI MM 06:00:00 NR -22.50 84.90 2777 2771 _____O________ -1 -22.50 84.90 99 9.90 14 127
1967 SI MM 09:00:00 NR -22.84 85.48 2767 2765 _____P________ -1 -22.84 85.48 99 13 121
1967 SI MM 10:00:00 NR -22.92 85.68 2757 2739 _____P________ -1 -22.92 85.68 99 13 115
1967 SI MM 12:00:00 NR -23.10 86.10 2739 2686 _____O________ -1 -23.10 86.10 99 9.90 14 116
1967 SI MM 15:00:00 NR -23.46 86.84 2684 2652 _____P________ -1 -23.46 86.84 99 16 118
1967 SI MM 16:00:00 NR -23.58 87.10 2652 2597 _____P________ -1 -23.58 87.10 99 16 116
1967 SI MM 18:00:00 NR -23.80 87.60 2597 2575 _____O________ -1 -23.80 87.60 99 9.90 15 115
1967 SI MM 19:00:00 NR -23.89 87.83 2575 2533 _____P________ -1 -23.89 87.83 99 13 112
1967 SI MM 21:00:00 NR -24.05 88.28 2523 2501 _____P________ -1 -24.05 88.28 99 13 112
1967 SI MM 22:00:00 NR -24.13 88.49 2501 2457 _____P________ -1 -24.13 88.49 99 12 114
1967 SI MM 1967-04-12 00:00:00 NR -24.30 88.90 2457 2435 _____O________ -1 -24.30 88.90 99 9.90 12 116
1967 SI MM 01:00:00 NR -24.40 89.09 2435 2401 _____P________ -1 -24.40 89.09 99 12 122
1967 SI MM 03:00:00 NR -24.63 89.46 2391 2380 _____P________ -1 -24.63 89.46 99 12 125
1967 SI MM 04:00:00 NR -24.75 89.64 2380 2335 _____P________ -1 -24.75 89.64 99 12 128
1967 SI WA 06:00:00 ET -25.00 90.00 2335 _____O________ -1 -25.00 90.00 5 9.90 12 128